Kezdőlap
METAR-TAF:

METAR-TAF

Repülőterek :

East Hampton Airport

East Hampton, New York, Amerikai Egyesült Államok

földrajzi szélesség: 40-57-34N, földrajzi hosszúság: 072-15-07W, magasság: 17 m

Jelenlegi meteorológiai megfigyelések

A jelentés 25 perccel ezelõtt készült, 17:55 UTC
Dél-délnyugati szél 10 kt
Hőmérséklet 10°C
Páratartalom 32%
Légköri nyomás 1021 hPa
Látótávolság: 16.1 km
Derült ég

METAR: KHTO 231755Z AUTO 21010KT 10SM CLR 10/M06 A3014 RMK AO2 T00961060 10098 21067

Idő: 13:20 (18:20 UTC)


TAF: hiányzik

Meteorológiai megfigyelések és előrejelzések több, mint 4000 repülőtéren (METAR és TAF jelentéseket).

A térképen piros és sárga pontok jelzik az elérhető meteorológiai állomásokat.

Mozgassa az egeret a pont fölött, hogy megjelenjen az állomás neve.

Azután kattintson az időjárási megfigyelések és előrejelzések megtekintéséhez.

A térkép megváltoztatása: kattintson a fekete keresztel jelölt zöld gombra ráközelítéshez, a vonallal jelölt zöld gombra távolításhoz, vagy a zöld nyilakra a szomszédos térképek eléréséhez.


METAR-TAF: